Flight Track Log - Related Links

Times and Time Zones

All times are in EDT time to prevent confusion due to time zone crossing. See the EJA831 flight status page for this flight to view local times or setup timezone preferences in your user account.

Time Position Orientation Groundspeed Altitude Reporting Facility
EDT Latitude Longitude Course Direction KTS km/h feet Rate Location/Type
Mon 02:24:27 PM 42.4178 -73.3231 220° Southwest 200 370 2.400  Level Boston Center
Mon 02:25:49 PM 42.3483 -73.4008 220° Southwest 275 509 7.100 3.211 Climbing Boston Center
Mon 02:26:49 PM 42.2750 -73.4503 207° Southwest 275 509 10.000 2.700 Climbing Boston Center
Mon 02:27:49 PM 42.2039 -73.4856 200° South 269 499 12.500 2.650 Climbing Boston Center
Mon 02:28:49 PM 42.1283 -73.5347 206° Southwest 287 531 15.300 2.850 Climbing Boston Center
Mon 02:29:49 PM 42.0528 -73.5836 206° Southwest 301 557 18.200 2.650 Climbing Boston Center
Mon 02:30:49 PM 41.9731 -73.6353 206° Southwest 307 568 20.600 2.350 Climbing Boston Center
Mon 02:31:49 PM 41.8892 -73.6922 207° Southwest 325 602 22.900 1.850 Climbing Boston Center
Mon 02:32:49 PM 41.8050 -73.7492 207° Southwest 355 658 24.300 1.950 Climbing Boston Center
Mon 02:33:49 PM 41.7189 -73.8028 205° Southwest 355 658 26.800 2.150 Climbing Boston Center
Mon 02:34:49 PM 41.6286 -73.8619 206° Southwest 355 658 28.600 2.600 Climbing Boston Center
Mon 02:35:49 PM 41.5447 -73.9183 207° Southwest 350 649 32.000 2.731 Climbing Boston Center
Mon 02:37:03 PM 41.4533 -73.9792 207° Southwest 313 579 34.700 1.778 Climbing New York Center
Mon 02:38:04 PM 41.3792 -74.0281 206° Southwest 298 552 36.000 1.230 Climbing New York Center
Mon 02:39:05 PM 41.3267 -74.1139 231° Southwest 286 529 37.200 1.091 Climbing New York Center
Mon 02:40:05 PM 41.2639 -74.1964 225° Southwest 304 563 38.200 1.041 Climbing New York Center
Mon 02:41:06 PM 41.1928 -74.2839 223° Southwest 314 581 39.300 814 Climbing New York Center
Mon 02:42:03 PM 41.1256 -74.3656 222° Southwest 324 600 39.800 610 Climbing New York Center
Mon 02:43:04 PM 41.0583 -74.4556 225° Southwest 335 621 40.500 843 Climbing New York Center
Mon 02:44:04 PM 40.9908 -74.5428 224° Southwest 340 629 41.500 893 Climbing New York Center
Mon 02:45:05 PM 40.9278 -74.6269 225° Southwest 340 629 42.300 595 Climbing New York Center
Mon 02:46:05 PM 40.8625 -74.7083 223° Southwest 340 629 42.700 298 Climbing New York Center
Mon 02:47:06 PM 40.7972 -74.7950 225° Southwest 340 629 42.900 153 Climbing New York Center
Mon 02:48:03 PM 40.7275 -74.8814 223° Southwest 340 629 43.000 51 Climbing New York Center
Mon 02:49:04 PM 40.6597 -74.9703 225° Southwest 346 641 43.000  Level New York Center
Mon 02:50:04 PM 40.5878 -75.0589 223° Southwest 346 641 43.000  Level New York Center
Mon 02:51:05 PM 40.5178 -75.1500 225° Southwest 352 652 43.000  Level New York Center
Mon 02:52:05 PM 40.4456 -75.2464 225° Southwest 357 661 43.000  Level New York Center
Mon 02:53:06 PM 40.3689 -75.3419 224° Southwest 368 681 43.000  Level New York Center
Mon 02:54:06 PM 40.2944 -75.4325 223° Southwest 373 690 43.000  Level New York Center
Mon 02:55:04 PM 40.2197 -75.5281 224° Southwest 373 690 43.000  Level New York Center
Mon 02:56:04 PM 40.1450 -75.6206 223° Southwest 373 690 43.000  Level New York Center
Mon 02:57:05 PM 40.0683 -75.7156 223° Southwest 373 690 43.000  Level New York Center
Mon 02:59:28 PM 39.8881 -75.9403 224° Southwest 372 689 43.000  Level Washington Center
Mon 03:00:29 PM 39.8211 -76.0211 223° Southwest 372 689 43.000  Level Washington Center
Mon 03:01:29 PM 39.7458 -76.1150 224° Southwest 372 689 43.000  Level Washington Center
Mon 03:02:30 PM 39.6703 -76.2061 223° Southwest 372 689 43.000  Level Washington Center
Mon 03:03:30 PM 39.5928 -76.2944 221° Southwest 372 689 43.000  Level Washington Center
Mon 03:04:30 PM 39.5214 -76.3878 225° Southwest 372 689 43.000  Level Washington Center
Mon 03:05:28 PM 39.4436 -76.4783 222° Southwest 372 689 43.000  Level Washington Center
Mon 03:06:29 PM 39.3639 -76.5686 221° Southwest 377 698 43.000  Level Washington Center
Mon 03:07:30 PM 39.2817 -76.6667 223° Southwest 377 698 43.000  Level Washington Center
Mon 03:08:31 PM 39.2036 -76.7567 222° Southwest 371 687 43.000  Level Washington Center
Mon 03:09:29 PM 39.1278 -76.8519 224° Southwest 371 687 43.000  Level Washington Center
Mon 03:10:29 PM 39.0517 -76.9414 222° Southwest 371 687 43.000  Level Washington Center
Mon 03:11:28 PM 38.9778 -77.0308 223° Southwest 371 687 43.000  Level Washington Center
Mon 03:12:28 PM 38.9017 -77.1200 222° Southwest 371 687 43.000  Level Washington Center
Mon 03:13:29 PM 38.8233 -77.2117 222° Southwest 371 687 43.000  Level Washington Center
Mon 03:14:30 PM 38.7492 -77.3006 223° Southwest 371 687 43.000  Level Washington Center
Mon 03:15:28 PM 38.6728 -77.3892 222° Southwest 371 687 43.000  Level Washington Center
Mon 03:16:29 PM 38.5964 -77.4778 222° Southwest 371 687 43.000  Level Washington Center
Mon 03:17:30 PM 38.5197 -77.5686 223° Southwest 371 687 43.000  Level Washington Center
Mon 03:18:30 PM 38.4433 -77.6594 223° Southwest 371 687 43.000  Level Washington Center
Mon 03:19:28 PM 38.3667 -77.7472 222° Southwest 371 687 43.000  Level Washington Center
Mon 03:20:29 PM 38.2900 -77.8378 223° Southwest 371 687 43.000  Level Washington Center
Mon 03:21:30 PM 38.2217 -77.9150 222° Southwest 371 687 43.000  Level Washington Center
Mon 03:22:30 PM 38.1469 -78.0050 223° Southwest 371 687 43.000  Level Washington Center
Mon 03:23:28 PM 38.0681 -78.0947 222° Southwest 371 687 43.000  Level Washington Center
Mon 03:24:29 PM 37.9928 -78.1897 225° Southwest 366 678 43.000  Level Washington Center
Mon 03:25:30 PM 37.9239 -78.2875 228° Southwest 361 668 43.000  Level Washington Center
Mon 03:26:30 PM 37.8572 -78.3850 229° Southwest 371 687 43.000  Level Washington Center
Mon 03:27:29 PM 37.7967 -78.4722 229° Southwest 376 697 43.000  Level Washington Center
Mon 03:28:30 PM 37.7275 -78.5692 228° Southwest 376 697 43.000  Level Washington Center
Mon 03:29:28 PM 37.6606 -78.6664 229° Southwest 376 697 43.000  Level Washington Center
Mon 03:30:28 PM 37.5933 -78.7606 228° Southwest 376 697 43.000  Level Washington Center
Mon 03:31:29 PM 37.5175 -78.8647 227° Southwest 376 697 43.000  Level Washington Center
Mon 03:32:30 PM 37.4500 -78.9639 229° Southwest 371 687 43.000  Level Washington Center
Mon 03:33:30 PM 37.3808 -79.0550 226° Southwest 371 687 43.000  Level Washington Center
Mon 03:34:28 PM 37.3111 -79.1536 228° Southwest 376 697 43.000  Level Washington Center
Mon 03:35:28 PM 37.2436 -79.2497 229° Southwest 376 697 43.000  Level Washington Center
Mon 03:36:29 PM 37.1764 -79.3297 223° Southwest 376 697 43.000  Level Washington Center
Mon 03:37:30 PM 37.1047 -79.4228 226° Southwest 376 697 43.000  Level Washington Center
Mon 03:38:28 PM 37.0306 -79.5178 226° Southwest 381 705 43.000  Level Washington Center
Mon 03:39:28 PM 36.9567 -79.6078 224° Southwest 386 715 43.000  Level Washington Center
Mon 03:40:29 PM 36.8847 -79.7000 226° Southwest 386 715 43.000  Level Washington Center
Mon 03:42:07 PM 36.7544 -79.8544 224° Southwest 386 715 43.000  Level Atlanta Center
Mon 03:43:07 PM 36.6883 -79.9381 225° Southwest 381 705 43.000  Level Atlanta Center
Mon 03:44:07 PM 36.6144 -80.0300 225° Southwest 381 705 43.000  Level Atlanta Center
Mon 03:45:07 PM 36.5422 -80.1214 225° Southwest 381 705 43.000  Level Atlanta Center
Mon 03:46:07 PM 36.4658 -80.2103 223° Southwest 376 697 43.000  Level Atlanta Center
Mon 03:47:07 PM 36.3856 -80.3122 226° Southwest 376 697 43.000  Level Atlanta Center
Mon 03:48:07 PM 36.3131 -80.3981 224° Southwest 371 687 43.000  Level Atlanta Center
Mon 03:49:07 PM 36.2383 -80.4889 224° Southwest 371 687 43.000  Level Atlanta Center
Mon 03:50:07 PM 36.1658 -80.5769 224° Southwest 371 687 43.000  Level Atlanta Center
Mon 03:51:07 PM 36.0956 -80.6700 227° Southwest 366 678 43.000  Level Atlanta Center
Mon 03:52:07 PM 36.0206 -80.7578 223° Southwest 372 689 43.000  Level Atlanta Center
Mon 03:53:07 PM 35.9539 -80.8375 224° Southwest 372 689 43.000  Level Atlanta Center
Mon 03:54:07 PM 35.8811 -80.9275 225° Southwest 372 689 43.000  Level Atlanta Center
Mon 03:55:07 PM 35.8083 -81.0147 224° Southwest 364 674 43.000  Level Atlanta Center
Mon 03:56:07 PM 35.7353 -81.1019 224° Southwest 369 684 43.000  Level Atlanta Center
Mon 03:57:07 PM 35.6436 -81.1969 220° Southwest 375 695 43.000  Level Atlanta Center
Mon 03:58:07 PM 35.5728 -81.2864 226° Southwest 380 703 43.000  Level Atlanta Center
Mon 03:59:07 PM 35.4978 -81.3858 227° Southwest 380 703 43.000  Level Atlanta Center
Mon 04:00:08 PM 35.4244 -81.4722 224° Southwest 385 713 43.000  Level Atlanta Center
Mon 04:01:07 PM 35.3572 -81.5508 224° Southwest 379 702 43.000  Level Atlanta Center
Mon 04:02:07 PM 35.2839 -81.6394 225° Southwest 373 690 43.000  Level Atlanta Center
Mon 04:03:07 PM 35.2083 -81.7306 225° Southwest 367 679 43.000  Level Atlanta Center
Mon 04:04:07 PM 35.1369 -81.8189 225° Southwest 373 690 43.000  Level Atlanta Center
Mon 04:05:07 PM 35.0614 -81.9097 225° Southwest 373 690 43.000  Level Atlanta Center
Mon 04:06:07 PM 34.9878 -82.0006 225° Southwest 373 690 43.000  Level Atlanta Center
Mon 04:07:07 PM 34.9058 -82.0936 223° Southwest 373 690 43.000  Level Atlanta Center
Mon 04:08:07 PM 34.8300 -82.1839 224° Southwest 368 681 43.000  Level Atlanta Center
Mon 04:09:07 PM 34.7561 -82.2742 225° Southwest 373 690 43.000  Level Atlanta Center
Mon 04:10:07 PM 34.6883 -82.3539 224° Southwest 381 705 43.000  Level Atlanta Center
Mon 04:11:07 PM 34.6144 -82.4461 226° Southwest 381 705 43.000  Level Atlanta Center
Mon 04:12:07 PM 34.5364 -82.5358 223° Southwest 381 705 43.000  Level Atlanta Center
Mon 04:13:07 PM 34.4603 -82.6256 224° Southwest 381 705 43.000  Level Atlanta Center
Mon 04:14:07 PM 34.3839 -82.7147 224° Southwest 386 715 43.000  Level Atlanta Center
Mon 04:15:07 PM 34.3056 -82.8067 224° Southwest 392 726 43.000  Level Atlanta Center
Mon 04:16:07 PM 34.2231 -82.9058 225° Southwest 387 716 43.000  Level Atlanta Center
Mon 04:17:07 PM 34.1467 -82.9972 225° Southwest 392 726 43.000  Level Atlanta Center
Mon 04:18:07 PM 34.0661 -83.0883 223° Southwest 392 726 43.000  Level Atlanta Center
Mon 04:19:07 PM 33.9894 -83.1769 224° Southwest 392 726 43.000  Level Atlanta Center
Mon 04:20:07 PM 33.9128 -83.2678 225° Southwest 392 726 43.000  Level Atlanta Center
Mon 04:21:07 PM 33.8361 -83.3561 224° Southwest 392 726 43.000  Level Atlanta Center
Mon 04:22:07 PM 33.7614 -83.4442 224° Southwest 392 726 43.000  Level Atlanta Center
Mon 04:23:07 PM 33.6847 -83.5294 223° Southwest 392 726 43.000  Level Atlanta Center
Mon 04:24:07 PM 33.6161 -83.6097 224° Southwest 392 726 43.000  Level Atlanta Center
Mon 04:25:07 PM 33.5392 -83.7000 224° Southwest 392 726 43.000  Level Atlanta Center
Mon 04:26:07 PM 33.4600 -83.7847 222° Southwest 387 716 43.000  Level Atlanta Center
Mon 04:27:07 PM 33.3850 -83.8722 224° Southwest 387 716 43.000  Level Atlanta Center
Mon 04:28:07 PM 33.3100 -83.9592 224° Southwest 382 708 43.000  Level Atlanta Center
Mon 04:29:07 PM 33.2244 -84.0561 223° Southwest 377 698 43.000  Level Atlanta Center
Mon 04:30:07 PM 33.1492 -84.1431 224° Southwest 382 708 43.000 -600 Level Atlanta Center
Mon 04:31:07 PM 33.0719 -84.2322 224° Southwest 382 708 41.800 -1.500 Descending Atlanta Center
Mon 04:32:07 PM 32.9944 -84.3186 223° Southwest 382 708 40.000 -1.800 Descending Atlanta Center
Mon 04:33:07 PM 32.9211 -84.4000 223° Southwest 375 695 38.200 -1.800 Descending Atlanta Center
Mon 04:34:07 PM 32.8478 -84.4839 224° Southwest 375 695 36.400 -1.100 Descending Atlanta Center
Mon 04:35:07 PM 32.7828 -84.5578 224° Southwest 370 686 36.000 -200 Descending Atlanta Center
Mon 04:36:07 PM 32.7075 -84.6411 223° Southwest 370 686 36.000  Level Atlanta Center
Mon 04:37:07 PM 32.6317 -84.7269 224° Southwest 370 686 36.000  Level Atlanta Center
Mon 04:38:07 PM 32.5583 -84.8078 223° Southwest 370 686 36.000 -250 Level Atlanta Center
Mon 04:39:07 PM 32.4742 -84.8956 221° Southwest 370 686 35.500 -500 Descending Atlanta Center
Mon 04:40:07 PM 32.4006 -84.9761 223° Southwest 370 686 35.000 -450 Descending Atlanta Center
Mon 04:41:07 PM 32.3225 -85.0614 223° Southwest 370 686 34.600 -500 Descending Atlanta Center
Mon 04:42:07 PM 32.2678 -85.1247 224° Southwest 364 674 34.000 -300 Descending Atlanta Center
Mon 04:43:07 PM 32.1792 -85.2217 223° Southwest 364 674 34.000 -450 Level Atlanta Center
Mon 04:44:07 PM 32.1056 -85.3017 223° Southwest 364 674 33.100 -1.200 Descending Atlanta Center
Mon 04:45:07 PM 32.0294 -85.3864 223° Southwest 364 674 31.600 -1.550 Descending Atlanta Center
Mon 04:46:07 PM 31.9533 -85.4683 222° Southwest 374 692 30.000 -1.473 Descending Atlanta Center
Mon 04:48:51 PM 31.7431 -85.6969 223° Southwest 398 737 26.100 -1.446 Descending Jacksonville Center
Mon 04:49:51 PM 31.6658 -85.7825 223° Southwest 393 727 24.600 -1.050 Descending Jacksonville Center
Mon 04:50:51 PM 31.5847 -85.8678 222° Southwest 393 727 24.000 -750 Descending Jacksonville Center
Mon 04:51:51 PM 31.5056 -85.9481 221° Southwest 393 727 23.100 -1.450 Descending Jacksonville Center
Mon 04:52:51 PM 31.4225 -86.0161 215° Southwest 383 710 21.100 -1.950 Descending Jacksonville Center
Mon 04:53:51 PM 31.3414 -86.0864 217° Southwest 372 689 19.200 -1.700 Descending Jacksonville Center
Mon 04:54:51 PM 31.2622 -86.1542 216° Southwest 366 678 17.700 -1.250 Descending Jacksonville Center
Mon 04:55:51 PM 31.1794 -86.2119 211° Southwest 360 666 16.700 -1.050 Descending Jacksonville Center
Mon 04:56:51 PM 31.0850 -86.2303 189° South 348 644 15.600 -1.550 Descending Jacksonville Center
Mon 04:57:51 PM 30.9908 -86.2392 185° South 335 621 13.600 -2.350 Descending Jacksonville Center
Mon 04:58:51 PM 30.9128 -86.2656 196° South 310 575 10.900 -2.550 Descending Jacksonville Center
Mon 04:59:51 PM 30.8453 -86.2919 199° South 285 528 8.500 -2.050 Descending Jacksonville Center
Mon 05:00:51 PM 30.7839 -86.3286 207° Southwest 264 489 6.800 -1.650 Descending Jacksonville Center
Mon 05:01:51 PM 30.7211 -86.3358 186° South 239 443 5.200 -900 Descending Jacksonville Center
Mon 05:02:51 PM 30.6578 -86.3553 195° South 233 431 5.000 -100 Descending Jacksonville Center
Mon 05:03:51 PM 30.5933 -86.3506 176° South 233 431 5.000  Level Jacksonville Center
Mon 05:05:00 PM 30.4901 -86.4126 207° Southwest  Level FlightAware Approximate
Mon 05:12:00 PM 30.4000 -86.4667 198° South  Level FlightAware Approximate
Mon 05:13:00 PM 30.4000 -86.4715 198° South  Level Estimated
Mon 05:14:00 PM 30.4000 -86.4667 198° South  Level FlightAware Approximate
Mon 05:15:00 PM 30.4000 -86.4715 198° South  Level Estimated
Mon 05:16:00 PM 30.4000 -86.4667 198° South  Level FlightAware Approximate
Mon 05:17:00 PM 30.4000 -86.4715 198° South  Level Estimated
Mon 05:18:00 PM 30.4000 -86.4667 198° South  Level FlightAware Approximate

Login

Don't have an account? Register now (free) for customized features, flight alerts, and more!